Capitol Logistics 365


KRFD
Chicago/Rockford International Airport
Rockford, Illinois, US
CYHZ
Robert L. Stanfield International Airport
Halifax, , CA

Route Details

Aircraft Information
Primary: Boeing 767-300BDSF
Backup: Not Available
Route Data
Distance: 1123nm
Sched. Duration: 2h 45m
Avg. Duration: 2h 46m (+1m)
Times Flown: 9
Recm'd Route: RONIC ADALE FNT Q822 ALLEX FUNDY3
Planned Altitude: 35,000ft
Origin Wx: KRFD 060954Z 00000KT 10SM BKN140 02/M08 A3013 RMK AO2 SLP205 T00171078 $
Dest. Wx: CYHZ 061000Z 18009KT 15SM OVC030 01/01 A2980 RMK SC8 SLP100
Notes:

Financial History
Total Freight: 408,359lbs
Average Load: 45,373lbs/flt
Fuel Used: 222,200lbs
Avg. Fuel Used: 24,689lbs/flt
Fuel Expense: $162,895
Avg. Fuel Expense: $18,099
Avg. Fuel Cost: $0.73/lbs
Total Gross Income: $590,463
Pilot Pay: $1,991
Total Expenses: $64,238
Total Revenue: $357,203
Average Revenue: $65,607.03